Date,TemperatureHighF,TemperatureAvgF,TemperatureLowF,DewpointHighF,DewpointAvgF,DewpointLowF,HumidityHigh,HumidityAvg,HumidityLow,PressureMaxIn,PressureMinIn,WindSpeedMaxMPH,WindSpeedAvgMPH,GustSpeedMaxMPH,PrecipitationSumIn
2015-1-1,49.7,37.4,26.4,39.7,31.1,24.8,97,80,42,30.45,30.30,4,0,4,0.03
2015-1-2,46.9,42.7,40.5,46.4,41.9,39.5,98,97,96,30.41,30.26,4,0,4,0.66
2015-1-3,60.2,52.4,47.1,59.7,51.7,46.6,99,97,97,30.27,30.00,27,1,27,0.87
2015-1-4,60.7,54.9,42.9,60.1,50.6,37.1,99,86,68,30.40,29.97,22,3,22,1.07
2015-1-5,43.6,37.1,27.2,37.4,27.5,23.0,87,69,44,30.63,30.39,11,2,12,0.00
2015-1-6,50.2,35.7,23.2,32.0,27.7,21.3,97,75,46,30.45,30.30,14,1,14,0.00
2015-1-7,38.1,28.2,13.9,29.3,17.3,-0.3,89,64,45,30.73,30.30,19,3,19,0.00
2015-1-8,34.2,18.7,8.5,12.0,4.9,0.1,73,56,29,30.74,30.40,14,2,14,0.00
2015-1-9,36.9,26.1,16.1,19.6,15.0,10.1,83,64,44,30.49,30.36,10,1,10,0.00
2015-1-10,43.4,27.6,16.7,17.3,11.8,7.1,74,53,27,30.62,30.49,7,1,9,0.00
2015-1-11,44.4,34.6,21.6,37.5,25.0,15.5,94,69,44,30.59,30.40,12,1,12,0.05
2015-1-12,47.9,43.7,38.3,47.4,43.0,36.8,98,97,94,30.40,30.15,6,0,6,0.08
2015-1-13,47.0,41.2,38.4,46.5,39.9,37.6,98,95,91,30.35,30.22,10,1,15,0.02
2015-1-14,44.2,38.9,30.9,40.8,37.4,29.8,98,94,79,30.34,30.24,6,0,6,0.01
2015-1-15,36.4,32.6,27.5,35.1,31.6,26.5,98,96,93,30.29,30.19,7,0,7,0.03
2015-1-16,50.4,35.8,26.0,36.4,30.8,24.8,98,84,48,30.33,30.21,11,1,11,0.00
2015-1-17,59.4,38.2,23.3,38.2,30.3,21.8,98,77,38,30.31,30.12,16,1,16,0.00
2015-1-18,56.7,43.2,31.4,39.1,32.2,25.6,95,69,34,30.17,30.05,19,2,19,0.00
2015-1-19,65.2,44.7,27.8,34.8,29.0,24.8,92,60,23,30.18,30.02,19,1,19,0.00
2015-1-20,65.0,49.4,36.3,43.3,37.8,31.6,90,66,38,30.05,29.93,13,1,13,0.00
2015-1-21,61.7,44.3,31.4,40.3,33.0,25.4,98,69,27,30.24,30.01,11,1,11,0.00
2015-1-22,51.7,39.4,28.7,40.5,32.4,24.9,95,77,50,30.36,30.23,6,0,6,0.02
2015-1-23,44.1,41.8,40.0,43.3,40.7,38.7,97,96,94,30.29,29.81,12,0,12,0.96
2015-1-24,46.4,39.7,33.9,40.6,33.5,28.4,97,80,52,30.01,29.79,17,2,17,0.04
2015-1-25,60.0,42.0,25.6,44.7,34.1,24.1,97,77,40,30.01,29.73,21,2,21,0.08
2015-1-26,45.4,40.3,32.0,42.5,35.3,28.3,90,82,71,30.01,29.76,18,3,18,0.00
2015-1-27,50.5,39.5,30.8,36.7,31.9,28.0,96,76,51,30.18,29.91,17,2,17,0.00
2015-1-28,51.7,38.5,29.6,30.3,26.3,21.3,85,64,30,30.37,30.17,18,2,18,0.00
2015-1-29,60.9,44.7,28.8,44.8,34.5,25.1,93,70,41,30.33,30.11,17,2,17,0.00
2015-1-30,50.2,41.2,30.1,40.8,27.8,22.1,76,60,37,30.41,30.19,20,3,20,0.00
2015-1-31,50.8,36.6,23.4,29.7,23.4,17.1,93,62,27,30.45,30.29,5,0,5,0.00
2015-2-1,56.4,46.5,34.6,55.3,41.7,27.3,96,84,63,30.30,29.72,22,2,22,0.07
2015-2-2,57.2,39.1,26.6,55.6,32.3,20.4,96,77,58,30.33,29.71,27,4,27,0.01
2015-2-3,45.6,30.8,19.8,29.8,22.4,17.8,94,74,35,30.44,30.31,7,0,7,0.08
2015-2-4,51.7,36.8,24.7,32.0,27.3,22.3,94,72,36,30.35,30.12,9,0,9,0.18
2015-2-5,46.1,38.0,26.3,34.1,21.2,10.0,89,54,24,30.38,30.09,17,2,17,0.03
2015-2-6,51.8,31.6,16.8,23.4,16.0,10.6,83,56,23,30.48,30.32,9,0,9,0.00
2015-2-7,65.5,42.0,22.8,30.5,24.3,19.2,95,56,19,30.33,30.14,12,1,17,0.00
2015-2-8,66.4,50.1,31.9,51.4,41.3,25.6,95,73,54,30.15,29.91,15,2,16,0.00
2015-2-9,64.7,55.2,41.3,56.7,50.8,36.5,97,86,65,29.94,29.74,16,2,16,0.09
2015-2-10,49.2,41.1,32.8,36.7,33.4,28.8,87,75,58,30.04,29.93,16,3,16,0.00
2015-2-11,58.2,39.7,24.6,40.0,31.9,22.9,96,76,46,30.14,30.03,9,1,9,0.00
2015-2-12,44.5,34.9,26.4,33.8,22.7,11.9,93,63,41,30.35,30.06,23,3,23,0.00
2015-2-13,41.9,30.3,24.2,17.1,13.6,10.6,64,51,29,30.40,30.24,11,2,12,0.00
2015-2-14,58.9,40.5,21.6,33.2,23.5,13.6,78,53,34,30.26,29.98,27,3,27,0.00
2015-2-15,42.4,27.9,18.3,28.0,4.4,-2.7,57,37,23,30.40,30.18,16,3,16,0.00
2015-2-16,40.4,34.9,28.9,38.8,25.5,4.1,96,72,34,30.30,29.75,13,1,13,1.39
2015-2-17,39.0,31.5,25.0,36.2,24.1,18.2,97,75,54,30.11,29.83,11,2,11,0.00
2015-2-18,37.0,26.9,19.9,27.2,18.0,8.4,91,70,45,30.31,30.05,34,4,34,0.00
2015-2-19,26.4,18.7,10.8,9.3,3.3,-3.1,71,52,34,30.47,30.31,16,3,16,0.00
2015-2-20,32.4,23.0,13.6,23.0,10.1,-1.8,83,59,30,30.52,30.36,9,1,9,0.00
2015-2-21,51.6,39.8,31.6,42.6,29.9,15.8,97,69,47,30.36,30.05,18,2,18,0.59
2015-2-22,52.3,45.5,41.1,51.7,44.5,39.0,98,96,92,30.27,30.08,10,0,10,0.21
2015-2-23,45.1,38.3,33.1,38.9,32.3,23.5,96,80,60,30.36,30.24,16,3,16,0.26
2015-2-24,41.2,32.9,28.2,34.1,27.6,22.3,93,81,65,30.25,30.01,8,1,8,0.09
2015-2-25,34.6,30.4,26.0,30.3,26.4,21.5,96,86,62,30.04,29.77,8,0,8,0.00
2015-2-26,38.4,33.0,26.2,33.3,30.4,24.5,97,90,79,30.26,29.78,9,1,9,0.35
2015-2-27,40.9,31.0,23.5,27.1,23.7,19.8,97,76,44,30.54,30.25,12,1,12,0.05
2015-2-28,55.3,40.7,27.3,36.3,28.7,19.5,85,63,43,30.63,30.46,15,1,15,0.13
2015-3-1,50.5,45.1,39.4,45.0,39.2,32.4,89,80,60,30.55,30.37,9,1,12,0.00
2015-3-2,57.4,49.7,46.0,49.0,46.4,43.7,97,89,69,30.39,30.27,8,1,9,0.03
2015-3-3,54.5,50.9,45.7,53.7,49.4,43.0,98,95,83,30.27,30.04,5,0,7,0.13
2015-3-4,76.7,63.0,50.8,64.8,59.1,50.3,99,88,63,30.04,29.84,15,3,24,0.27
2015-3-5,61.3,39.7,27.1,60.2,37.4,21.5,96,91,79,30.44,29.88,14,3,17,0.23
2015-3-6,46.7,31.7,22.6,33.7,24.9,18.0,92,77,50,30.55,30.43,9,2,16,0.00
2015-3-7,60.0,38.6,22.0,34.6,25.7,20.3,97,67,24,30.54,30.36,8,1,10,0.00
2015-3-8,68.9,47.7,25.8,44.7,29.6,23.8,96,58,21,30.37,30.19,7,1,9,0.00
2015-3-9,64.8,54.1,46.6,52.0,46.4,42.7,96,77,47,30.27,30.16,4,0,5,0.07
2015-3-10,75.8,61.4,51.6,64.6,56.9,50.4,97,86,60,30.18,30.02,12,1,14,0.13
2015-3-11,69.6,62.3,56.5,64.6,60.5,55.4,98,94,80,30.24,30.08,6,0,6,0.18
2015-3-12,68.0,58.8,51.9,60.8,54.9,50.9,98,88,67,30.33,30.23,11,0,11,0.04
2015-3-13,60.9,51.6,47.2,54.4,47.2,41.0,96,85,61,30.34,30.18,15,2,15,0.24
2015-3-14,67.5,56.0,47.7,62.0,53.6,46.5,98,92,79,30.18,30.03,11,1,11,0.08
2015-3-15,75.3,60.5,48.3,57.9,47.9,35.1,98,70,25,30.27,30.10,12,1,12,0.00
2015-3-16,79.8,56.7,36.9,48.8,40.3,34.7,98,63,21,30.25,30.06,10,1,10,0.00
2015-3-17,80.3,62.8,46.6,59.8,51.4,41.8,94,69,40,30.07,29.93,17,2,17,0.00
2015-3-18,74.0,60.3,49.5,52.4,44.5,38.8,81,57,41,30.15,30.00,9,1,9,0.00
2015-3-19,56.0,51.0,47.6,52.0,48.0,40.2,96,91,56,30.15,30.03,11,0,11,0.27
2015-3-20,63.9,53.1,47.4,57.8,51.2,45.8,98,93,78,30.17,30.08,8,0,8,0.02
2015-3-21,68.1,58.4,51.5,56.0,50.2,42.1,97,77,40,30.19,30.07,7,1,10,0.00
2015-3-22,57.9,55.0,51.7,56.7,53.4,49.9,97,94,79,30.11,29.94,5,0,5,0.52
2015-3-23,70.0,58.1,49.5,54.6,51.3,46.8,98,81,49,30.10,29.97,15,1,15,0.02
2015-3-24,75.3,57.5,40.8,54.9,48.5,39.5,98,76,44,30.17,30.06,15,1,15,0.00
2015-3-25,79.0,63.4,48.8,60.5,54.2,47.1,97,75,44,30.19,30.01,18,1,18,0.00
2015-3-26,74.5,66.3,53.5,60.9,58.0,51.1,94,76,50,30.01,29.73,18,2,18,0.25
2015-3-27,57.7,48.7,42.4,51.1,38.7,28.4,95,71,36,30.07,29.78,17,3,17,0.09
2015-3-28,52.7,41.2,31.5,35.1,24.5,14.4,87,56,23,30.33,30.07,18,2,18,0.00
2015-3-29,63.6,43.4,23.1,37.1,25.3,17.3,86,54,24,30.45,30.22,16,1,16,0.00
2015-3-30,69.3,57.1,46.5,56.3,47.2,34.8,97,72,40,30.22,30.06,17,2,17,0.39
2015-3-31,74.3,56.8,38.8,61.4,49.8,37.1,98,79,52,30.12,29.91,17,2,17,0.09
2015-4-1,79.4,64.5,54.2,57.3,52.2,44.1,98,70,30,30.09,29.94,12,1,12,0.06
2015-4-2,74.4,60.9,51.7,65.6,56.0,46.3,97,84,69,30.18,30.06,18,1,18,0.30
2015-4-3,85.4,67.3,51.2,62.9,55.0,49.8,98,70,30,30.11,29.88,21,3,21,0.14
2015-4-4,65.8,57.4,42.6,63.1,42.4,27.9,95,61,25,30.27,29.95,17,2,17,0.10
2015-4-5,71.5,53.1,32.6,43.9,34.2,26.1,91,54,24,30.32,30.17,19,1,19,0.00
2015-4-6,74.4,61.3,50.7,64.4,51.3,34.0,97,72,40,30.24,30.11,14,0,14,0.38
2015-4-7,81.8,68.7,60.9,67.6,62.6,60.0,98,83,52,30.21,30.06,13,1,13,0.01
2015-4-8,88.7,70.9,55.2,66.9,59.5,52.8,98,72,31,30.15,29.97,14,1,14,0.00
2015-4-9,86.0,71.9,58.1,66.4,61.8,55.9,97,73,48,30.08,29.97,20,2,20,0.00
2015-4-10,72.5,67.9,61.3,69.0,64.4,58.3,98,89,79,30.08,29.95,12,1,12,0.96
2015-4-11,76.4,61.8,47.0,58.8,47.1,37.8,94,64,27,30.18,30.07,11,1,11,0.01
2015-4-12,73.3,58.9,42.7,64.6,53.5,41.0,96,83,72,30.20,30.10,12,1,12,0.00
2015-4-13,73.1,67.1,63.1,69.3,63.1,54.2,97,87,69,30.18,30.02,11,0,11,0.26
2015-4-14,80.8,71.3,65.4,70.6,66.7,64.4,98,87,64,30.06,29.97,15,1,15,0.17
2015-4-15,78.9,68.0,59.4,67.9,64.0,54.9,97,88,64,30.15,29.96,13,0,13,0.04
2015-4-16,59.2,55.7,54.0,55.0,53.1,51.5,97,91,84,30.22,30.13,12,1,12,0.00
2015-4-17,62.4,58.7,54.9,61.6,57.8,54.0,98,97,96,30.16,29.99,3,0,3,0.71
2015-4-18,71.7,65.4,60.8,68.3,63.5,60.2,98,94,80,30.02,29.88,5,0,5,0.02
2015-4-19,76.1,67.9,61.6,68.6,65.3,59.5,99,92,74,29.90,29.62,19,2,19,0.51
2015-4-20,76.1,65.4,57.0,65.6,57.1,48.9,99,77,50,29.88,29.67,19,2,19,0.11
2015-4-21,68.7,56.8,43.5,50.2,43.4,36.2,98,65,34,30.02,29.89,16,1,16,0.00
2015-4-22,77.1,59.8,40.9,56.0,48.3,39.0,96,69,43,30.00,29.88,18,1,18,0.00
2015-4-23,66.6,57.7,49.2,54.8,46.4,36.6,95,69,39,30.06,29.93,9,0,9,0.00
2015-4-24,73.6,57.1,39.9,53.5,42.7,33.7,90,63,27,30.11,29.92,8,0,8,0.00
2015-4-25,76.5,65.7,55.9,69.2,62.0,52.0,98,88,73,29.93,29.59,18,1,18,0.63
2015-4-26,79.5,69.7,56.9,67.4,61.7,50.1,94,77,50,29.82,29.59,15,1,15,0.00
2015-4-27,67.6,56.6,45.1,50.3,45.4,39.6,97,70,36,29.94,29.80,10,0,10,0.00
2015-4-28,73.8,58.5,41.8,56.4,47.7,39.8,96,71,40,29.96,29.81,14,0,14,0.00
2015-4-29,65.8,58.0,53.3,58.9,55.2,52.2,97,91,71,29.85,29.76,5,0,5,0.08
2015-4-30,73.4,61.2,47.4,55.2,49.7,44.6,98,70,38,29.92,29.76,15,1,15,0.00
2015-5-1,70.5,56.6,42.7,49.2,44.7,40.9,95,68,38,30.09,29.92,13,1,13,0.00
2015-5-2,77.4,59.3,42.9,54.6,47.8,41.3,98,71,34,30.15,30.03,7,0,7,0.00
2015-5-3,81.1,62.5,46.0,58.2,50.9,44.4,98,71,30,30.18,30.08,11,0,11,0.00
2015-5-4,81.8,64.8,49.0,62.2,54.5,47.3,97,73,37,30.29,30.16,8,0,8,0.00
2015-5-5,82.7,66.0,50.8,62.2,55.9,49.1,97,74,41,30.33,30.16,10,0,10,0.00
2015-5-6,82.8,65.8,49.8,62.2,55.7,48.2,97,74,39,30.22,30.06,9,0,9,0.00
2015-5-7,85.9,68.0,50.5,65.2,57.4,48.8,98,73,40,30.15,30.02,12,0,12,0.00
2015-5-8,87.5,70.7,55.9,68.2,60.7,54.2,97,74,42,30.11,30.00,7,0,7,0.00
2015-5-9,87.9,72.3,58.9,70.2,63.4,56.9,97,76,43,30.11,30.00,10,0,10,0.00
2015-5-10,89.8,75.4,63.3,71.5,66.4,61.8,96,76,43,30.12,30.01,9,0,9,0.00
2015-5-11,90.1,75.8,62.4,71.4,64.9,60.8,97,73,44,30.09,30.00,12,0,12,0.00
2015-5-12,81.2,72.6,64.7,70.9,64.9,60.8,98,78,53,30.18,30.06,10,1,10,0.11
2015-5-13,83.0,68.2,55.9,60.7,52.6,47.5,85,60,30,30.25,30.12,10,0,10,0.00
2015-5-14,84.8,68.0,50.6,68.5,58.2,47.9,94,73,50,30.27,30.15,11,0,11,0.00
2015-5-15,80.7,71.6,62.2,69.2,64.5,60.2,95,79,60,30.24,30.13,11,1,11,0.00
2015-5-16,83.0,71.8,62.4,73.7,66.5,60.3,96,84,62,30.20,30.09,11,1,11,0.07
2015-5-17,81.7,71.4,65.0,73.8,68.1,64.1,98,90,72,30.24,30.13,8,0,8,0.09
2015-5-18,87.2,74.3,66.8,73.5,68.7,65.5,98,84,53,30.23,30.07,14,0,14,0.02
2015-5-19,83.5,73.2,65.9,71.8,67.8,64.3,98,84,62,30.11,29.98,9,0,9,0.02
2015-5-20,87.8,73.4,61.8,73.9,66.3,60.4,98,81,48,30.01,29.86,10,0,10,0.12
2015-5-21,73.0,67.2,56.7,66.8,60.2,47.7,93,79,63,30.12,29.89,13,2,13,0.00
2015-5-22,77.7,61.9,47.2,57.5,51.0,45.4,95,70,42,30.25,30.10,9,0,9,0.00
2015-5-23,85.8,65.8,47.6,61.6,53.2,45.7,97,69,36,30.37,30.24,12,0,12,0.00
2015-5-24,85.5,69.9,54.8,67.0,60.2,51.2,95,73,50,30.32,30.15,13,1,13,0.00
2015-5-25,82.8,72.2,64.8,71.3,65.8,59.8,97,81,66,30.23,30.12,13,1,13,0.16
2015-5-26,81.8,71.7,46.4,74.9,69.1,28.3,98,92,49,30.42,30.09,14,1,14,0.03
2015-5-27,82.4,71.8,64.4,66.3,64.9,62.5,100,81,55,30.26,30.13,19,3,19,0.12
2015-5-28,80.6,70.5,66.2,70.0,65.8,64.3,94,86,62,30.25,30.13,6,2,6,0.49
2015-5-29,82.4,71.6,64.4,71.8,67.6,64.4,100,88,55,30.22,30.08,11,2,11,0.00
2015-5-30,88.3,74.1,59.5,70.9,65.2,58.1,98,77,45,30.15,30.01,11,1,11,0.00
2015-5-31,83.7,70.8,62.7,74.0,67.0,61.2,97,88,63,30.06,29.97,11,0,11,0.26
2015-6-1,80.5,71.2,65.0,72.0,67.7,63.7,97,89,70,30.08,29.98,9,0,9,0.07
2015-6-2,82.8,71.0,61.9,70.6,65.0,60.7,98,83,54,30.04,29.91,9,0,9,0.00
2015-6-3,80.2,68.0,59.9,70.4,64.2,58.5,97,88,65,29.99,29.90,8,0,8,0.16
2015-6-4,81.5,69.1,60.6,69.8,64.7,59.5,98,87,62,30.08,29.98,6,0,6,0.00
2015-6-5,86.0,71.8,60.0,71.1,65.1,58.9,98,81,51,30.09,29.94,6,0,6,0.00
2015-6-6,88.5,74.4,62.1,71.6,65.7,60.8,98,77,45,30.00,29.91,8,0,8,0.00
2015-6-7,93.0,75.9,62.5,74.0,67.4,60.8,97,78,43,30.04,29.93,11,0,11,0.00
2015-6-8,91.7,79.0,67.1,72.6,69.0,65.0,95,73,49,30.04,29.87,13,1,13,0.00
2015-6-9,88.4,75.1,68.3,75.8,70.3,66.1,97,86,58,29.93,29.78,10,0,10,0.30
2015-6-10,91.0,75.6,63.5,76.3,68.2,62.5,98,80,43,29.93,29.83,5,0,5,0.00
2015-6-11,87.2,75.0,67.5,75.9,70.8,65.7,97,87,60,29.99,29.91,8,0,8,0.10
2015-6-12,88.0,76.6,69.0,74.4,70.3,67.6,97,82,56,30.11,29.98,15,0,15,0.00
2015-6-13,91.2,78.8,66.7,75.3,69.6,65.2,96,76,48,30.16,30.03,9,0,9,0.00
2015-6-14,96.0,80.6,66.0,74.3,68.6,64.2,95,70,37,30.15,30.04,9,0,10,0.00
2015-6-15,97.7,80.9,66.6,76.3,69.4,64.8,97,72,36,30.13,30.02,7,0,7,0.00
2015-6-16,99.1,81.5,68.3,77.1,70.6,65.2,95,73,36,30.14,30.01,7,0,7,0.10
2015-6-17,98.7,82.6,69.6,78.4,71.6,67.7,98,73,38,30.12,29.98,8,0,9,0.00
2015-6-18,93.0,78.8,71.9,76.6,72.7,69.4,95,83,52,30.08,29.98,11,0,11,0.20
2015-6-19,93.7,80.3,68.2,76.8,71.4,67.0,98,77,45,30.08,29.93,12,1,12,0.00
2015-6-20,91.8,82.0,74.9,75.2,72.4,68.8,93,74,48,30.01,29.94,16,1,16,0.02
2015-6-21,96.5,82.9,73.4,77.1,72.3,68.1,94,73,41,30.08,29.97,11,1,12,0.00
2015-6-22,96.7,82.6,71.7,75.8,70.6,65.3,94,70,38,30.12,30.00,7,0,7,0.00
2015-6-23,96.3,84.0,73.0,74.9,71.2,68.6,91,68,44,30.10,30.00,15,1,15,0.00
2015-6-24,97.8,82.9,72.3,76.5,72.3,68.0,92,73,42,30.10,29.99,12,0,12,0.00
2015-6-25,93.6,78.3,67.4,78.7,71.2,65.5,96,80,49,30.10,29.96,8,0,8,0.04
2015-6-26,94.5,80.6,70.4,77.3,72.8,68.8,97,79,52,30.00,29.87,13,0,13,0.00
2015-6-27,83.2,76.6,71.9,75.3,71.6,67.9,95,85,72,29.91,29.82,10,1,10,0.05
2015-6-28,85.8,72.7,59.9,68.2,59.9,52.9,97,68,34,30.00,29.89,8,1,8,0.01
2015-6-29,90.1,74.0,56.9,66.5,61.1,54.8,95,67,42,30.01,29.90,13,1,13,0.00
2015-6-30,89.3,77.4,70.4,75.4,68.4,63.0,91,75,48,30.00,29.88,12,1,15,0.03
2015-7-1,85.9,73.6,67.0,73.7,68.7,64.7,96,86,58,30.05,29.96,10,0,10,0.22
2015-7-2,85.8,75.8,65.8,74.7,69.4,64.6,98,82,58,30.03,29.90,13,1,13,0.03
2015-7-3,78.9,75.2,70.3,72.9,70.6,68.2,96,86,77,30.01,29.88,12,1,12,0.50
2015-7-4,85.8,74.2,68.2,74.7,69.5,66.5,97,86,59,30.08,29.95,9,1,9,0.28
2015-7-5,86.0,75.7,69.7,70.6,68.4,65.7,92,79,53,30.12,30.02,12,1,12,0.01
2015-7-6,87.1,76.9,68.6,73.8,70.4,66.7,97,82,58,30.15,30.05,10,0,10,0.00
2015-7-7,92.4,79.7,67.2,75.0,70.9,65.7,97,77,49,30.14,30.05,10,0,10,0.00
2015-7-8,94.9,81.6,69.9,77.3,71.3,66.7,96,74,41,30.16,30.06,10,0,10,0.00
2015-7-9,94.6,81.6,68.5,75.1,71.3,66.7,96,74,46,30.17,30.04,10,1,10,0.00
2015-7-10,96.3,82.0,69.7,75.7,71.2,67.2,96,73,41,30.17,30.05,9,0,9,0.00
2015-7-11,96.8,81.9,71.6,75.3,70.8,62.0,94,72,34,30.16,30.06,10,0,10,0.00
2015-7-12,95.3,80.9,68.2,75.7,71.0,66.4,95,74,50,30.10,29.93,10,0,10,0.00
2015-7-13,96.3,83.9,71.2,75.7,71.9,67.2,95,70,40,29.97,29.80,10,0,10,0.00
2015-7-14,96.5,81.8,71.1,75.8,72.5,67.7,95,76,47,29.86,29.69,17,1,17,0.25
2015-7-15,93.0,79.2,69.4,76.8,71.3,67.7,96,79,46,29.93,29.80,12,1,12,0.00
2015-7-16,92.8,79.1,66.7,73.0,68.8,65.2,97,74,42,29.99,29.87,8,0,8,0.00
2015-7-17,97.0,81.1,66.9,74.4,69.4,65.2,96,71,40,30.03,29.93,10,0,10,0.00
2015-7-18,97.3,81.3,69.2,76.6,71.6,66.9,95,75,43,30.03,29.94,14,1,14,0.12
2015-7-19,92.8,77.4,69.0,80.9,73.4,67.8,98,88,60,30.00,29.92,15,0,15,0.08
2015-7-20,97.6,82.9,73.6,78.6,74.2,65.9,97,78,37,29.95,29.81,11,1,11,0.01
2015-7-21,97.8,82.5,72.6,77.4,72.8,70.5,97,75,44,29.86,29.76,20,1,20,0.00
2015-7-22,96.8,81.0,71.3,75.8,71.9,69.1,94,76,44,29.94,29.85,10,0,10,0.00
2015-7-23,86.1,78.5,71.2,75.8,72.6,69.2,95,83,66,29.98,29.88,9,1,9,0.00
2015-7-24,94.0,82.4,74.1,74.5,72.7,69.7,96,75,47,29.97,29.86,8,0,8,0.00
2015-7-25,97.3,80.2,68.4,75.8,71.1,66.6,96,77,43,29.97,29.87,10,1,10,0.00
2015-7-26,96.1,79.7,70.9,75.3,71.9,69.0,96,80,45,29.97,29.91,14,0,14,0.21
2015-7-27,93.8,81.4,69.1,79.0,73.3,68.2,98,82,53,30.00,29.90,2,0,4,0.00
2015-7-28,96.7,84.0,71.3,78.6,73.2,69.8,97,80,47,30.00,29.91,10,1,13,0.00
2015-7-29,96.9,84.0,71.1,76.3,73.0,69.6,97,75,45,30.00,29.89,5,0,8,0.00
2015-7-30,96.5,85.1,73.6,74.8,72.8,67.2,95,68,45,29.98,29.87,7,0,8,0.00
2015-7-31,92.4,80.4,68.3,68.6,65.0,59.9,84,59,38,29.98,29.89,7,0,9,0.00
2015-8-1,94.5,78.5,62.5,65.9,61.6,56.1,93,63,30,29.98,29.88,5,0,7,0.00
2015-8-2,96.5,79.2,62.0,69.5,62.8,57.8,95,64,29,29.95,29.84,5,0,7,0.00
2015-8-3,97.8,81.7,65.6,71.4,62.2,54.9,94,61,26,29.94,29.85,7,0,7,0.00
2015-8-4,100.6,82.3,64.1,69.2,63.1,57.9,86,59,28,30.00,29.90,5,0,7,0.00
2015-8-5,99.8,84.4,68.9,74.2,68.3,63.5,95,69,33,30.01,29.88,8,0,9,0.28
2015-8-6,83.9,77.4,70.9,76.4,72.1,69.7,98,91,70,29.97,29.81,8,0,10,0.40
2015-8-7,88.8,80.0,71.2,72.6,70.9,67.8,98,81,53,29.88,29.80,6,1,6,0.00
2015-8-8,92.7,78.6,64.5,73.5,68.4,63.3,97,75,41,29.94,29.84,2,0,9,0.00
2015-8-9,95.3,81.5,67.7,77.1,70.6,66.2,96,74,44,29.98,29.90,2,0,5,0.00
2015-8-10,97.7,84.4,71.2,75.1,71.5,67.1,94,81,42,29.97,29.86,6,0,6,0.04
2015-8-11,90.1,80.0,69.9,76.3,72.3,68.9,97,88,55,29.97,29.89,3,0,4,0.91
2015-8-12,87.5,77.1,66.7,72.8,66.8,63.0,98,76,45,30.04,29.95,4,0,9,0.00
2015-8-13,90.3,76.1,61.9,72.4,66.5,60.5,96,77,50,30.05,29.95,3,0,3,0.00
2015-8-14,89.5,79.4,69.4,73.7,69.9,66.8,95,76,49,30.13,30.03,3,0,4,0.00
2015-8-15,89.4,78.1,66.8,71.8,68.0,65.0,95,75,45,30.16,30.05,3,0,4,0.00
2015-8-16,89.5,78.2,67.0,72.4,68.4,65.2,96,75,52,30.15,30.05,4,0,6,0.00
2015-8-17,86.3,78.7,71.1,75.1,71.0,68.8,97,85,63,30.11,29.99,5,0,7,0.69
2015-8-18,86.3,78.4,70.5,76.9,72.7,69.6,97,90,68,30.04,29.89,9,1,9,0.42
2015-8-19,87.6,79.7,71.8,77.3,73.8,70.5,96,87,68,29.98,29.87,6,1,6,0.30
2015-8-20,84.7,78.4,72.1,75.5,72.9,70.9,97,83,68,30.02,29.93,4,0,6,0.00
2015-8-21,84.8,77.4,70.1,76.4,71.5,68.6,96,85,68,30.07,29.99,3,0,3,0.00
2015-8-22,90.0,79.9,69.8,77.1,72.0,68.3,96,82,58,30.08,29.95,5,0,9,0.45
2015-8-23,83.7,75.9,68.2,76.0,70.8,66.9,98,89,69,30.04,29.91,4,0,5,0.16
2015-8-24,88.1,78.3,68.5,77.0,71.0,64.8,98,82,57,29.99,29.89,4,0,6,0.00
2015-8-25,81.9,70.8,59.8,66.5,59.3,54.4,93,71,40,30.00,29.93,5,0,7,0.00
2015-8-26,82.8,70.1,57.3,65.8,61.4,54.7,93,68,52,30.01,29.95,5,0,7,0.00
2015-8-27,87.2,72.8,58.4,68.9,63.2,56.8,96,76,48,30.04,29.96,5,0,6,0.00
2015-8-28,86.1,74.2,62.2,72.7,67.1,60.8,97,81,58,30.15,30.03,5,0,10,0.00
2015-8-29,83.8,75.2,66.6,73.4,69.3,64.8,96,84,62,30.17,30.07,7,1,11,0.00
2015-8-30,76.0,71.4,66.8,69.8,67.6,64.7,97,92,72,30.14,30.04,3,0,5,0.24
2015-8-31,84.1,75.4,66.8,73.2,68.2,65.0,95,85,61,30.14,30.04,3,0,4,0.00
2015-9-1,88.1,76.1,64.2,73.7,68.2,62.7,97,81,53,30.13,30.02,1,0,2,0.00
2015-9-2,90.0,78.3,66.6,75.8,70.0,65.3,97,81,48,30.10,29.96,0,0,0,0.00
2015-9-3,90.1,79.5,68.9,75.2,70.9,66.5,95,83,50,30.00,29.90,6,0,10,0.00
2015-9-4,92.8,78.7,64.5,73.9,68.7,63.1,98,79,45,30.01,29.92,3,0,6,0.00
2015-9-5,89.7,79.2,68.8,72.4,69.3,67.1,95,76,51,30.11,29.99,7,0,8,0.00
2015-9-6,86.5,76.2,66.0,72.1,68.4,64.2,97,80,54,30.14,30.03,4,0,7,0.00
2015-9-7,87.5,75.2,62.9,71.5,66.5,61.5,97,80,51,30.12,29.97,4,0,5,0.00
2015-9-8,86.2,75.6,65.1,75.9,69.1,63.7,97,85,63,30.05,29.91,6,0,8,0.00
2015-9-9,87.6,78.6,69.5,75.8,70.9,67.7,97,87,55,29.97,29.83,8,0,11,0.24
2015-9-10,82.9,75.4,68.0,73.7,69.9,66.8,97,86,63,29.92,29.80,6,0,9,0.01
2015-9-11,87.7,76.6,65.4,71.3,66.8,62.3,98,79,44,29.93,29.80,7,0,8,0.05
2015-9-12,76.7,69.6,62.4,66.1,60.8,50.5,96,77,44,29.93,29.82,7,1,9,0.00
2015-9-13,74.0,61.2,48.4,53.6,49.7,46.5,96,68,40,30.14,29.93,6,0,10,0.00
2015-9-14,79.3,61.6,43.8,55.7,50.0,42.0,97,72,37,30.27,30.14,7,1,10,0.00
2015-9-15,82.4,65.6,48.8,63.0,54.9,47.2,97,74,40,30.34,30.25,9,0,9,0.00
2015-9-16,81.6,67.8,53.9,64.3,58.4,52.2,97,76,48,30.34,30.19,6,0,7,0.00
2015-9-17,84.4,72.2,59.9,62.8,59.6,57.0,93,71,40,30.20,30.02,3,0,6,0.00
2015-9-18,86.0,70.3,54.6,66.0,59.3,52.9,97,75,43,30.04,29.90,5,0,7,0.00
2015-9-19,87.5,71.6,55.7,66.7,60.3,54.0,97,74,40,29.99,29.89,3,0,5,0.00
2015-9-20,89.2,74.8,60.5,70.3,64.0,58.8,96,75,45,30.00,29.89,8,1,13,0.00
2015-9-21,73.5,68.7,63.9,63.8,62.5,60.4,93,83,66,30.03,29.92,3,0,5,0.00
2015-9-22,81.8,72.8,63.8,68.7,65.2,62.3,96,84,60,30.12,30.01,4,0,8,0.00
2015-9-23,85.2,72.3,59.4,66.2,63.2,57.9,98,78,50,30.16,30.04,4,0,8,0.00
2015-9-24,80.4,70.4,60.5,62.7,57.4,50.5,94,71,36,30.15,30.04,5,0,7,0.04
2015-9-25,67.8,64.4,60.9,65.9,62.8,59.2,98,96,92,30.08,29.97,2,0,4,1.94
2015-9-26,68.4,66.5,64.6,67.5,65.4,63.8,98,97,96,30.09,29.99,0,0,0,0.16
2015-9-27,73.2,69.3,65.4,68.0,65.8,63.6,97,90,81,30.13,30.01,0,0,0,0.00
2015-9-28,74.4,70.9,67.5,72.2,68.9,65.8,98,95,90,30.05,29.91,0,0,0,0.01
2015-9-29,80.1,75.1,70.1,74.9,71.7,69.2,98,93,79,29.93,29.78,0,0,0,0.25
2015-9-30,80.3,72.9,65.6,71.8,68.3,64.8,99,90,70,29.86,29.78,0,0,0,0.00
2015-10-1,69.0,65.2,61.4,65.1,63.2,60.5,97,91,87,29.86,29.81,0,0,1,0.88
2015-10-2,63.9,61.4,58.9,62.8,60.2,58.3,98,97,95,29.84,29.76,0,0,0,0.06
2015-10-3,60.8,59.2,57.5,60.0,58.5,56.9,98,98,96,29.77,29.68,0,0,1,0.44
2015-10-4,66.2,61.9,57.6,65.6,59.8,57.0,99,98,97,29.90,29.72,0,0,1,0.23
2015-10-5,77.3,69.4,61.6,72.2,66.1,61.0,99,93,79,29.99,29.88,0,0,0,0.01
2015-10-6,76.7,68.4,60.2,68.2,63.3,59.3,98,88,68,30.09,29.98,0,0,0,0.00
2015-10-7,79.8,69.0,58.2,67.9,63.1,57.4,98,86,59,30.11,30.00,0,0,0,0.00
2015-10-8,80.9,68.3,55.8,67.3,61.3,55.0,98,85,56,30.16,30.05,0,0,0,0.00
2015-10-9,77.9,68.9,60.0,68.5,63.4,58.6,97,90,70,30.16,29.98,0,0,0,0.02
2015-10-10,68.1,62.8,57.4,64.4,61.7,55.4,98,93,82,30.05,29.96,3,0,4,0.75
2015-10-11,72.3,63.3,54.3,61.9,57.3,52.9,97,88,62,30.05,29.90,4,0,5,0.00
2015-10-12,75.7,64.2,52.8,62.2,56.2,51.9,98,82,51,29.96,29.79,3,0,8,0.00
2015-10-13,77.9,65.9,53.9,64.5,57.7,48.9,98,80,38,29.92,29.76,5,0,9,0.25
2015-10-14,75.1,61.0,46.9,56.1,50.0,45.1,96,76,42,30.06,29.91,3,0,9,0.00
2015-10-15,77.5,61.7,45.8,59.9,52.9,44.4,98,85,41,30.19,30.04,0,0,0,0.00
2015-10-16,72.3,58.8,45.2,59.1,48.5,38.2,98,74,30,30.26,30.10,9,0,10,0.00
2015-10-17,65.6,51.4,37.3,44.8,38.1,33.0,96,69,31,30.34,30.24,4,0,9,0.00
2015-10-18,62.7,49.0,35.2,42.8,37.8,32.9,96,73,33,30.47,30.33,5,0,7,0.00
2015-10-19,64.2,49.4,34.7,46.0,38.8,33.2,97,74,42,30.52,30.37,8,1,11,0.00
2015-10-20,68.0,51.6,35.2,51.7,42.8,33.8,98,81,47,30.46,30.30,0,0,6,0.00
2015-10-21,71.5,55.8,40.2,56.9,47.9,38.9,98,83,51,30.44,30.30,0,0,0,0.00
2015-10-22,75.8,59.8,43.7,62.6,52.2,42.4,98,86,57,30.37,30.23,0,0,0,0.00
2015-10-23,77.7,62.6,47.6,65.2,55.8,46.2,98,87,59,30.25,30.11,6,0,6,0.00
2015-10-24,74.8,65.2,55.5,67.1,60.6,53.9,97,90,72,30.19,30.09,2,0,4,0.00
2015-10-25,69.8,64.7,59.5,66.1,61.8,58.1,96,93,84,30.19,30.09,2,0,5,0.00
2015-10-26,65.1,59.3,53.5,64.5,59.3,52.2,98,97,94,30.16,30.08,5,0,9,1.09
2015-10-27,56.8,53.4,50.1,54.6,52.2,49.0,97,95,90,30.16,29.90,9,2,14,0.13
2015-10-28,74.2,64.8,55.4,66.8,60.2,54.3,99,91,68,29.92,29.75,12,1,17,0.11
2015-10-29,70.2,59.8,49.4,62.5,56.5,47.5,98,90,59,29.98,29.81,3,0,6,0.01
2015-10-30,65.3,53.2,41.1,51.2,45.1,40.0,98,82,47,30.14,29.97,5,0,7,0.00
2015-10-31,62.8,53.2,43.6,56.5,50.3,42.0,97,88,73,30.12,29.98,6,0,9,0.09
2015-11-1,63.0,59.7,56.4,62.4,59.9,55.5,98,98,96,30.05,29.92,5,0,7,0.53
2015-11-2,67.1,64.8,62.4,66.8,63.8,61.8,99,98,98,29.98,29.88,1,0,3,1.35
2015-11-3,68.6,66.3,64.0,66.5,64.4,63.2,99,96,90,30.14,29.98,2,0,5,0.01
2015-11-4,73.2,68.8,64.3,66.8,64.5,62.8,96,91,79,30.22,30.13,5,0,7,0.00
2015-11-5,70.4,67.2,64.0,66.7,64.8,63.1,97,94,88,30.25,30.14,1,0,5,0.00
2015-11-6,79.9,73.1,66.3,72.3,68.5,65.3,99,91,72,30.16,30.03,5,0,8,0.08
2015-11-7,70.0,61.0,51.9,68.8,63.0,50.7,98,97,92,30.22,30.06,2,0,5,1.20
2015-11-8,55.8,51.5,47.2,50.2,48.0,45.9,97,90,74,30.30,30.19,9,0,17,0.14
2015-11-9,53.6,50.0,46.4,53.0,50.0,45.6,98,98,97,30.23,30.10,3,0,3,0.66
2015-11-10,64.8,55.9,46.9,56.6,53.0,45.5,98,95,71,30.17,30.07,2,0,8,0.01
2015-11-11,70.5,55.6,40.7,56.5,50.8,39.8,99,84,50,30.14,29.97,3,0,4,0.00
2015-11-12,69.3,60.2,51.2,62.3,50.9,41.9,97,76,44,30.09,29.93,7,1,12,0.01
2015-11-13,62.1,49.4,36.7,43.1,33.9,20.0,94,60,23,30.31,30.09,7,1,16,0.00
2015-11-14,59.8,45.0,30.2,35.8,29.7,24.9,91,64,27,30.46,30.31,5,0,10,0.00
2015-11-15,56.2,43.2,30.3,45.9,35.9,27.5,94,79,54,30.52,30.36,3,0,5,0.00
2015-11-16,67.5,52.2,36.8,56.0,45.3,34.7,95,82,58,30.37,30.21,4,0,9,0.00
2015-11-17,70.2,60.4,50.7,58.7,54.1,48.2,92,79,65,30.21,30.04,16,1,17,0.00
2015-11-18,66.3,62.0,57.6,65.1,59.7,54.8,98,93,80,30.06,29.85,10,2,20,1.73
2015-11-19,67.3,55.7,44.1,61.2,51.0,42.5,99,86,49,30.22,29.98,7,0,8,0.01
2015-11-20,62.5,50.1,37.7,45.0,37.8,30.9,97,73,31,30.28,30.14,3,0,8,0.00
2015-11-21,62.2,48.7,35.2,50.7,42.7,33.5,97,79,57,30.16,29.99,9,1,13,0.00
2015-11-22,50.0,39.9,29.8,42.4,29.2,24.9,82,68,44,30.23,30.07,7,2,12,0.00
2015-11-23,51.5,37.8,24.0,31.7,25.4,21.6,96,71,35,30.39,30.22,6,0,8,0.00
2015-11-24,59.1,42.4,25.8,42.2,31.1,23.8,96,78,36,30.48,30.37,3,0,5,0.00
2015-11-25,59.9,45.3,30.8,39.4,34.7,29.0,96,73,42,30.59,30.44,7,1,11,0.00
2015-11-26,69.8,55.6,41.3,52.2,44.3,36.2,91,71,51,30.66,30.50,7,1,12,0.00
2015-11-27,73.2,58.9,44.6,56.2,51.0,42.9,98,81,53,30.52,30.33,8,1,12,0.00
2015-11-28,71.8,58.8,45.8,61.1,53.4,44.4,98,87,64,30.34,30.18,6,0,9,0.00
2015-11-29,67.5,61.5,55.4,63.0,58.2,52.8,97,93,83,30.35,30.06,2,0,2,0.05
2015-11-30,68.4,64.0,59.5,64.3,60.8,57.9,97,93,83,30.10,30.03,5,0,5,0.00
2015-12-1,63.4,60.3,57.2,62.0,59.3,56.0,98,97,92,30.06,29.90,5,0,8,1.35
2015-12-2,62.6,52.9,43.3,62.0,49.9,40.6,98,92,74,30.09,29.84,20,1,20,0.75
2015-12-3,50.1,41.3,32.6,41.1,33.7,29.8,91,75,48,30.41,30.08,7,1,11,0.00
2015-12-4,54.8,40.8,26.9,38.8,31.3,25.4,97,80,43,30.58,30.41,4,0,6,0.00
2015-12-5,59.1,42.7,26.3,38.4,31.5,24.8,98,74,35,30.67,30.55,6,0,10,0.00
2015-12-6,60.5,46.0,31.6,48.3,38.5,29.0,95,80,54,30.60,30.34,5,0,6,0.00
2015-12-7,63.1,50.5,38.0,49.6,42.0,35.8,98,83,48,30.34,30.16,8,1,10,0.00
2015-12-8,61.1,45.9,30.7,45.5,36.2,29.4,98,82,40,30.23,30.10,4,0,5,0.00
2015-12-9,64.2,47.4,30.6,53.8,43.2,29.1,98,86,66,30.12,29.97,13,1,17,0.00
2015-12-10,69.4,58.3,47.3,58.4,52.2,45.9,98,87,64,30.04,29.93,11,1,12,0.00
2015-12-11,73.5,60.5,47.6,64.6,58.1,46.3,98,90,71,30.13,29.97,8,1,9,0.00
2015-12-12,73.3,61.7,50.0,62.3,55.2,49.0,99,88,60,30.25,30.13,9,0,9,0.00
2015-12-13,73.2,61.5,49.9,63.3,57.0,48.9,98,86,67,30.20,29.89,14,1,14,0.00
2015-12-14,68.5,56.8,45.1,63.8,54.2,42.9,97,80,50,29.89,29.70,15,3,21,0.38
2015-12-15,67.4,53.8,40.1,54.1,45.6,38.9,98,85,56,29.99,29.85,4,0,5,0.00
2015-12-16,71.6,53.6,35.6,55.1,46.8,34.3,98,81,50,30.02,29.87,7,1,7,0.15
2015-12-17,60.3,52.2,44.0,59.2,53.2,42.7,98,93,78,29.94,29.76,7,1,10,0.70
2015-12-18,44.0,36.0,27.9,42.7,31.8,25.4,97,82,60,30.41,29.94,13,2,16,0.00
2015-12-19,50.6,37.8,24.9,34.7,27.4,23.4,96,78,43,30.60,30.40,6,1,8,0.00
2015-12-20,54.2,39.8,25.3,36.3,29.9,23.6,96,75,37,30.61,30.41,7,0,11,0.00
2015-12-21,54.0,47.3,40.6,53.2,45.2,34.1,97,87,69,30.43,30.07,7,1,9,0.13
2015-12-22,65.8,59.9,53.9,63.7,58.4,53.1,98,97,92,30.07,29.91,4,0,9,0.18
2015-12-23,65.1,62.8,60.6,64.2,61.4,59.8,98,96,94,29.92,29.75,12,2,15,0.66
2015-12-24,69.5,66.6,63.7,68.9,66.0,62.8,99,97,93,30.16,29.81,13,1,13,1.52
2015-12-25,75.1,68.9,62.7,70.1,64.6,62.0,98,96,81,30.30,30.11,17,2,17,1.52
2015-12-26,73.6,66.1,58.6,70.5,64.4,57.8,99,95,86,30.27,30.12,7,1,10,0.06
2015-12-27,74.4,68.2,62.0,69.7,65.2,61.0,99,93,82,30.13,29.97,10,1,11,0.00
2015-12-28,71.7,67.3,63.0,67.7,65.3,62.1,99,95,83,29.98,29.73,18,2,18,0.71
2015-12-29,64.9,57.0,49.0,62.5,54.1,47.8,99,89,72,30.16,29.86,5,1,7,0.00
2015-12-30,57.1,53.4,49.7,56.3,54.4,48.9,98,97,95,30.24,30.11,4,0,7,0.60
2015-12-31,57.5,49.2,41.0,53.5,47.0,36.9,98,85,67,30.27,30.13,8,1,8,0.00
2016-1-1,44.9,41.5,38.0,37.1,34.0,29.3,87,77,58,30.37,30.24,9,2,9,0.00
2016-1-2,47.8,39.7,31.5,35.3,30.0,27.9,89,75,49,30.39,30.23,5,1,9,0.01